createdAt,value
2023-01-28T00:01:26.843Z,101099.84
2023-01-28T00:03:53.776Z,101103.47
2023-01-28T00:06:20.783Z,101105.03
2023-01-28T00:08:48.771Z,101099.81
2023-01-28T00:11:15.706Z,101108.41
2023-01-28T00:13:42.834Z,101096.78
2023-01-28T00:16:10.074Z,101092.13
2023-01-28T00:18:38.059Z,101094.44
2023-01-28T00:21:12.712Z,101095.88
2023-01-28T00:23:42.405Z,101091.88
2023-01-28T00:26:15.183Z,101097.53
2023-01-28T00:28:43.099Z,101084.66
2023-01-28T00:31:17.006Z,101085.00
2023-01-28T00:33:46.112Z,101085.31
2023-01-28T00:36:14.357Z,101085.84
2023-01-28T00:38:42.597Z,101084.78
2023-01-28T00:41:16.696Z,101087.72
2023-01-28T00:43:45.456Z,101082.81
2023-01-28T00:46:14.180Z,101083.97
2023-01-28T00:48:43.571Z,101087.66
2023-01-28T00:51:13.082Z,101098.09
2023-01-28T00:53:40.720Z,101102.66
2023-01-28T00:56:11.828Z,101104.34
2023-01-28T00:58:38.920Z,101090.78
2023-01-28T01:01:15.442Z,101100.38
2023-01-28T01:03:42.955Z,101102.88
2023-01-28T01:06:12.226Z,101093.00
2023-01-28T01:08:42.866Z,101093.63
2023-01-28T01:11:11.717Z,101097.59
2023-01-28T01:13:39.067Z,101099.56
2023-01-28T01:16:12.795Z,101085.91
2023-01-28T01:18:43.426Z,101098.41
2023-01-28T01:21:17.538Z,101110.09
2023-01-28T01:23:45.185Z,101105.66
2023-01-28T01:26:13.323Z,101109.41
2023-01-28T01:28:40.410Z,101111.03
2023-01-28T01:31:14.925Z,101109.09
2023-01-28T01:33:47.616Z,101097.19
2023-01-28T01:36:17.224Z,101089.56
2023-01-28T01:38:44.218Z,101097.25
2023-01-28T01:41:30.497Z,101092.88
2023-01-28T01:44:03.785Z,101095.31
2023-01-28T01:46:40.034Z,101100.38
2023-01-28T01:49:26.198Z,101098.50
2023-01-28T01:52:03.632Z,101105.66
2023-01-28T01:54:32.352Z,101104.47
2023-01-28T01:57:00.270Z,101107.59
2023-01-28T01:59:30.341Z,101107.00
2023-01-28T02:02:01.574Z,101109.00
2023-01-28T02:04:40.301Z,101102.47
2023-01-28T02:07:09.621Z,101099.97
2023-01-28T02:09:38.381Z,101106.34
2023-01-28T02:12:13.995Z,101107.00
2023-01-28T02:15:17.259Z,101112.53
2023-01-28T02:17:44.888Z,101109.94
2023-01-28T02:20:26.044Z,101099.78
2023-01-28T02:23:55.921Z,101112.72
2023-01-28T02:27:10.383Z,101107.75
2023-01-28T02:29:53.218Z,101106.53
2023-01-28T02:32:53.669Z,101105.03
2023-01-28T02:35:36.248Z,101104.63
2023-01-28T02:38:16.705Z,101095.09
2023-01-28T02:41:09.809Z,101098.00
2023-01-28T02:43:46.364Z,101093.78
2023-01-28T02:46:51.043Z,101095.66
2023-01-28T02:49:56.603Z,101102.84
2023-01-28T02:52:53.115Z,101104.97
2023-01-28T02:56:00.965Z,101100.03
2023-01-28T02:58:46.338Z,101101.72
2023-01-28T03:01:39.259Z,101099.75
2023-01-28T03:04:27.177Z,101101.38
2023-01-28T03:06:58.530Z,101104.63
2023-01-28T03:09:27.230Z,101103.84
2023-01-28T03:12:25.734Z,101105.59
2023-01-28T03:15:34.923Z,101103.66
2023-01-28T03:18:37.009Z,101107.06
2023-01-28T03:21:31.405Z,101110.66
2023-01-28T03:24:27.490Z,101108.16
2023-01-28T03:27:52.151Z,101102.75
2023-01-28T03:30:48.159Z,101111.81
2023-01-28T03:33:34.903Z,101108.81
2023-01-28T03:36:21.659Z,101110.47
2023-01-28T03:38:48.895Z,101120.25
2023-01-28T03:41:26.987Z,101114.41
2023-01-28T03:43:54.805Z,101115.78
2023-01-28T03:46:21.887Z,101116.50
2023-01-28T03:48:48.779Z,101119.97
2023-01-28T03:51:16.637Z,101122.72
2023-01-28T03:53:43.514Z,101116.88
2023-01-28T03:56:18.508Z,101124.41
2023-01-28T03:58:56.699Z,101130.84
2023-01-28T04:01:24.323Z,101125.72
2023-01-28T04:03:51.430Z,101127.19
2023-01-28T04:06:18.377Z,101133.97
2023-01-28T04:08:48.968Z,101125.44
2023-01-28T04:11:16.018Z,101129.44
2023-01-28T04:13:43.877Z,101133.16
2023-01-28T04:16:12.517Z,101132.94
2023-01-28T04:18:39.724Z,101135.63
2023-01-28T04:21:06.712Z,101139.19
2023-01-28T04:23:33.587Z,101136.06
2023-01-28T04:26:00.550Z,101145.50
2023-01-28T04:28:28.517Z,101159.16
2023-01-28T04:30:55.410Z,101150.22
2023-01-28T04:33:22.474Z,101152.91
2023-01-28T04:35:49.435Z,101151.47
2023-01-28T04:38:16.321Z,101143.41
2023-01-28T04:40:43.204Z,101144.38
2023-01-28T04:43:10.214Z,101143.34
2023-01-28T04:45:37.207Z,101143.97
2023-01-28T04:48:04.222Z,101145.66
2023-01-28T04:50:31.148Z,101143.91
2023-01-28T04:52:58.015Z,101147.78
2023-01-28T04:55:25.034Z,101144.66
2023-01-28T04:57:52.414Z,101145.00
2023-01-28T05:00:19.783Z,101143.06
2023-01-28T05:02:46.680Z,101142.72
2023-01-28T05:05:13.922Z,101148.91
2023-01-28T05:07:42.037Z,101153.97
2023-01-28T05:10:10.071Z,101144.66
2023-01-28T05:12:36.944Z,101156.31
2023-01-28T05:15:04.916Z,101157.44
2023-01-28T05:17:31.850Z,101165.06
2023-01-28T05:19:58.867Z,101165.69
2023-01-28T05:22:25.820Z,101154.91
2023-01-28T05:24:52.720Z,101163.41
2023-01-28T05:27:19.665Z,101161.75
2023-01-28T05:29:46.659Z,101162.44
2023-01-28T05:32:13.544Z,101165.19
2023-01-28T05:34:40.439Z,101165.69
2023-01-28T05:37:07.308Z,101179.25
2023-01-28T05:39:34.299Z,101178.69
2023-01-28T05:42:01.359Z,101179.75
2023-01-28T05:44:28.223Z,101185.75
2023-01-28T05:46:55.183Z,101185.56
2023-01-28T05:49:22.345Z,101183.13
2023-01-28T05:51:49.782Z,101187.28
2023-01-28T05:54:16.753Z,101192.03
2023-01-28T05:56:43.753Z,101186.06
2023-01-28T05:59:12.174Z,101189.47
2023-01-28T06:01:39.273Z,101194.81
2023-01-28T06:04:06.304Z,101191.41
2023-01-28T06:06:33.221Z,101199.13
2023-01-28T06:09:00.260Z,101203.19
2023-01-28T06:11:27.539Z,101209.47
2023-01-28T06:13:54.530Z,101211.41
2023-01-28T06:16:21.500Z,101208.84
2023-01-28T06:18:48.404Z,101218.41
2023-01-28T06:21:15.344Z,101220.50
2023-01-28T06:23:42.234Z,101218.06
2023-01-28T06:26:09.209Z,101222.97
2023-01-28T06:28:36.211Z,101227.72
2023-01-28T06:31:03.276Z,101223.34
2023-01-28T06:33:30.296Z,101234.50
2023-01-28T06:35:57.212Z,101229.94
2023-01-28T06:38:24.357Z,101242.00
2023-01-28T06:40:53.359Z,101234.13
2023-01-28T06:43:20.282Z,101232.38
2023-01-28T06:45:47.159Z,101239.50
2023-01-28T06:48:14.114Z,101242.81
2023-01-28T06:50:41.003Z,101245.91
2023-01-28T06:53:07.876Z,101247.97
2023-01-28T06:55:34.873Z,101240.25
2023-01-28T06:58:01.835Z,101248.63
2023-01-28T07:00:28.771Z,101244.88
2023-01-28T07:02:57.360Z,101248.13
2023-01-28T07:05:25.544Z,101252.84
2023-01-28T07:07:52.659Z,101260.72
2023-01-28T07:10:19.644Z,101262.91
2023-01-28T07:12:46.537Z,101262.13
2023-01-28T07:15:15.150Z,101263.34
2023-01-28T07:17:42.557Z,101275.81
2023-01-28T07:20:12.803Z,101264.00
2023-01-28T07:22:42.197Z,101278.50
2023-01-28T07:25:10.167Z,101264.56
2023-01-28T07:27:37.155Z,101275.56
2023-01-28T07:30:05.410Z,101271.44
2023-01-28T07:32:32.414Z,101276.91
2023-01-28T07:34:59.401Z,101267.34
2023-01-28T07:37:26.273Z,101281.22
2023-01-28T07:39:53.277Z,101288.00
2023-01-28T07:42:20.260Z,101282.97
2023-01-28T07:44:47.248Z,101288.75
2023-01-28T07:47:14.339Z,101285.94
2023-01-28T07:49:41.517Z,101282.06
2023-01-28T07:52:09.484Z,101279.06
2023-01-28T07:54:36.404Z,101279.91
2023-01-28T07:57:09.817Z,101284.41
2023-01-28T07:59:36.996Z,101289.16
2023-01-28T08:02:04.970Z,101289.53
2023-01-28T08:04:32.007Z,101309.94
2023-01-28T08:06:58.995Z,101300.31
2023-01-28T08:09:25.947Z,101303.13
2023-01-28T08:11:53.328Z,101308.06
2023-01-28T08:14:20.297Z,101302.22
2023-01-28T08:16:48.192Z,101316.72
2023-01-28T08:19:15.411Z,101311.09
2023-01-28T08:21:42.279Z,101312.28
2023-01-28T08:24:09.389Z,101303.56
2023-01-28T08:26:36.473Z,101316.47
2023-01-28T08:29:03.573Z,101323.53
2023-01-28T08:31:30.564Z,101312.25
2023-01-28T08:33:57.431Z,101317.19
2023-01-28T08:36:24.349Z,101321.41
2023-01-28T08:38:55.009Z,101317.88
2023-01-28T08:41:22.990Z,101318.84
2023-01-28T08:43:50.208Z,101312.94
2023-01-28T08:46:17.243Z,101307.53
2023-01-28T08:48:44.162Z,101307.72
2023-01-28T08:51:11.102Z,101301.19
2023-01-28T08:53:38.081Z,101300.78
2023-01-28T08:56:05.540Z,101311.75
2023-01-28T08:58:32.605Z,101315.16
2023-01-28T09:01:05.960Z,101309.25
2023-01-28T09:03:33.523Z,101305.31
2023-01-28T09:06:02.860Z,101311.91
2023-01-28T09:08:29.764Z,101302.47
2023-01-28T09:10:58.205Z,101304.13
2023-01-28T09:13:25.981Z,101310.56
2023-01-28T09:15:53.317Z,101301.34
2023-01-28T09:18:20.445Z,101303.31
2023-01-28T09:20:47.529Z,101317.38
2023-01-28T09:23:14.959Z,101315.63
2023-01-28T09:25:42.227Z,101313.97
2023-01-28T09:28:09.378Z,101314.13
2023-01-28T09:30:38.002Z,101320.09
2023-01-28T09:33:06.089Z,101311.56
2023-01-28T09:35:34.319Z,101321.19
2023-01-28T09:38:01.281Z,101333.81
2023-01-28T09:40:41.049Z,101338.81
2023-01-28T09:43:41.165Z,101339.94
2023-01-28T09:46:18.597Z,101348.69
2023-01-28T09:48:52.948Z,101341.63
2023-01-28T09:51:33.992Z,101339.72
2023-01-28T09:54:42.437Z,101360.47
2023-01-28T09:57:42.963Z,101345.75
2023-01-28T10:00:20.043Z,101355.78
2023-01-28T10:03:22.516Z,101351.41
2023-01-28T10:06:15.609Z,101346.22
2023-01-28T10:09:21.400Z,101350.88
2023-01-28T10:12:11.338Z,101343.78
2023-01-28T10:15:17.781Z,101348.34
2023-01-28T10:17:49.834Z,101342.69
2023-01-28T10:20:52.439Z,101332.69
2023-01-28T10:23:27.422Z,101335.25
2023-01-28T10:25:57.933Z,101339.16
2023-01-28T10:28:30.593Z,101329.00
2023-01-28T10:30:57.689Z,101330.84
2023-01-28T10:33:37.783Z,101332.91
2023-01-28T10:36:05.593Z,101329.44
2023-01-28T10:38:32.723Z,101344.22
2023-01-28T10:41:05.066Z,101332.22
2023-01-28T10:43:42.987Z,101335.03
2023-01-28T10:46:19.783Z,101335.72
2023-01-28T10:49:07.272Z,101341.00
2023-01-28T10:51:40.756Z,101345.25
2023-01-28T10:54:24.988Z,101335.69
2023-01-28T10:57:02.604Z,101343.72
2023-01-28T10:59:41.802Z,101346.88
2023-01-28T11:02:36.951Z,101358.09
2023-01-28T11:05:27.309Z,101350.47
2023-01-28T11:08:15.567Z,101349.22
2023-01-28T11:10:43.890Z,101352.69
2023-01-28T11:13:22.801Z,101348.25
2023-01-28T11:15:59.100Z,101341.34
2023-01-28T11:18:29.800Z,101342.91
2023-01-28T11:21:03.931Z,101351.53
2023-01-28T11:23:38.651Z,101343.28
2023-01-28T11:26:23.735Z,101348.03
2023-01-28T11:28:51.203Z,101340.44
2023-01-28T11:31:19.392Z,101351.59
2023-01-28T11:33:53.775Z,101347.91
2023-01-28T11:36:24.742Z,101343.53
2023-01-28T11:39:24.650Z,101352.44
2023-01-28T11:41:52.453Z,101348.53
2023-01-28T11:44:25.623Z,101346.56
2023-01-28T11:47:22.801Z,101346.38
2023-01-28T11:50:32.878Z,101355.56
2023-01-28T11:53:32.872Z,101344.56
2023-01-28T11:56:38.480Z,101343.94
2023-01-28T11:59:59.785Z,101344.06
2023-01-28T12:03:02.925Z,101327.56
2023-01-28T12:05:53.794Z,101328.16
2023-01-28T12:09:00.434Z,101329.84
2023-01-28T12:12:11.926Z,101329.97
2023-01-28T12:15:20.345Z,101323.19
2023-01-28T12:18:18.567Z,101318.94
2023-01-28T12:21:11.380Z,101312.88
2023-01-28T12:24:18.178Z,101314.97
2023-01-28T12:27:04.390Z,101309.59
2023-01-28T12:29:50.425Z,101316.97
2023-01-28T12:33:10.607Z,101312.59
2023-01-28T12:36:16.537Z,101323.31
2023-01-28T12:39:21.010Z,101323.19
2023-01-28T12:42:18.387Z,101298.84
2023-01-28T12:44:57.510Z,101289.13
2023-01-28T12:47:36.569Z,101285.38
2023-01-28T12:50:19.367Z,101291.88
2023-01-28T12:53:32.849Z,101285.78
2023-01-28T12:56:34.129Z,101275.50
2023-01-28T12:59:11.610Z,101281.25
2023-01-28T13:02:14.504Z,101281.16
2023-01-28T13:04:53.269Z,101273.69
2023-01-28T13:07:44.489Z,101279.97
2023-01-28T13:10:36.670Z,101282.81
2023-01-28T13:13:05.762Z,101270.56
2023-01-28T13:15:36.933Z,101280.91
2023-01-28T13:18:05.979Z,101283.41
2023-01-28T13:20:47.758Z,101282.81
2023-01-28T13:23:39.224Z,101299.13
2023-01-28T13:26:24.625Z,101297.25
2023-01-28T13:28:53.340Z,101306.09
2023-01-28T13:31:24.449Z,101297.31
2023-01-28T13:33:54.325Z,101305.03
2023-01-28T13:36:30.227Z,101306.47
2023-01-28T13:39:19.535Z,101295.34
2023-01-28T13:41:52.835Z,101300.41
2023-01-28T13:44:32.565Z,101302.16
2023-01-28T13:47:24.692Z,101305.25
2023-01-28T13:49:57.856Z,101309.69
2023-01-28T13:52:44.563Z,101303.31
2023-01-28T13:55:11.325Z,101316.38
2023-01-28T13:57:56.293Z,101322.03
2023-01-28T14:00:48.003Z,101335.38
2023-01-28T14:04:15.194Z,101325.03
2023-01-28T14:07:01.020Z,101338.88
2023-01-28T14:09:53.711Z,101337.06
2023-01-28T14:13:01.365Z,101339.63
2023-01-28T14:16:14.064Z,101350.81
2023-01-28T14:18:45.737Z,101350.53
2023-01-28T14:21:18.857Z,101361.78
2023-01-28T14:23:50.086Z,101358.59
2023-01-28T14:26:34.778Z,101350.97
2023-01-28T14:29:16.581Z,101359.22
2023-01-28T14:31:43.743Z,101363.75
2023-01-28T14:34:29.817Z,101356.78
2023-01-28T14:37:10.203Z,101362.22
2023-01-28T14:40:06.615Z,101357.06
2023-01-28T14:42:40.715Z,101378.47
2023-01-28T14:45:45.322Z,101397.34
2023-01-28T14:48:21.107Z,101415.72
2023-01-28T14:51:21.168Z,101413.16
2023-01-28T14:54:18.541Z,101414.19
2023-01-28T14:57:35.799Z,101414.19
2023-01-28T15:00:02.948Z,101414.28
2023-01-28T15:02:31.790Z,101416.56
2023-01-28T15:05:23.212Z,101417.47
2023-01-28T15:07:50.960Z,101416.94
2023-01-28T15:10:20.794Z,101419.59
2023-01-28T15:12:56.443Z,101417.09
2023-01-28T15:15:46.792Z,101431.59
2023-01-28T15:18:23.398Z,101427.56
2023-01-28T15:20:56.190Z,101436.22
2023-01-28T15:23:35.549Z,101421.59
2023-01-28T15:26:24.952Z,101435.34
2023-01-28T15:28:53.404Z,101440.97
2023-01-28T15:31:28.740Z,101438.34
2023-01-28T15:34:14.714Z,101427.09
2023-01-28T15:36:42.591Z,101435.06
2023-01-28T15:39:22.087Z,101437.13
2023-01-28T15:42:01.414Z,101449.94
2023-01-28T15:44:43.896Z,101451.63
2023-01-28T15:47:24.225Z,101444.25
2023-01-28T15:49:55.767Z,101432.75
2023-01-28T15:52:34.393Z,101427.78
2023-01-28T15:55:04.452Z,101433.88
2023-01-28T15:57:37.180Z,101442.47
2023-01-28T16:00:07.008Z,101448.44
2023-01-28T16:02:34.526Z,101434.00
2023-01-28T16:05:10.962Z,101436.34
2023-01-28T16:07:46.357Z,101442.59
2023-01-28T16:10:27.118Z,101441.06
2023-01-28T16:13:20.032Z,101450.22
2023-01-28T16:15:49.678Z,101446.91
2023-01-28T16:18:49.085Z,101454.53
2023-01-28T16:21:29.911Z,101451.19
2023-01-28T16:24:18.504Z,101453.47
2023-01-28T16:27:03.042Z,101460.53
2023-01-28T16:29:31.349Z,101458.59
2023-01-28T16:32:00.032Z,101458.47
2023-01-28T16:34:27.722Z,101443.84
2023-01-28T16:37:01.668Z,101449.66
2023-01-28T16:39:29.929Z,101456.69
2023-01-28T16:41:57.080Z,101453.81
2023-01-28T16:44:24.054Z,101456.03
2023-01-28T16:46:51.433Z,101462.00
2023-01-28T16:49:18.461Z,101465.47
2023-01-28T16:51:45.371Z,101463.03
2023-01-28T16:54:16.110Z,101472.06
2023-01-28T16:56:46.494Z,101466.50
2023-01-28T16:59:15.950Z,101475.63
2023-01-28T17:01:46.962Z,101482.69
2023-01-28T17:04:14.305Z,101483.28
2023-01-28T17:06:44.319Z,101472.66
2023-01-28T17:09:14.516Z,101471.47
2023-01-28T17:11:42.083Z,101491.50
2023-01-28T17:14:11.202Z,101489.47
2023-01-28T17:16:38.598Z,101487.09
2023-01-28T17:19:06.807Z,101486.41
2023-01-28T17:21:33.923Z,101487.88
2023-01-28T17:24:01.651Z,101493.00
2023-01-28T17:26:31.861Z,101483.97
2023-01-28T17:28:58.842Z,101490.69
2023-01-28T17:31:26.460Z,101495.22
2023-01-28T17:33:55.863Z,101494.66
2023-01-28T17:36:24.513Z,101507.28
2023-01-28T17:38:52.344Z,101506.38
2023-01-28T17:41:19.619Z,101494.56
2023-01-28T17:43:54.883Z,101502.09
2023-01-28T17:46:24.143Z,101501.47
2023-01-28T17:48:52.982Z,101510.56
2023-01-28T17:51:20.424Z,101503.56
2023-01-28T17:53:49.453Z,101502.63
2023-01-28T17:56:22.877Z,101507.03
2023-01-28T17:58:58.187Z,101502.03
2023-01-28T18:01:26.455Z,101511.09
2023-01-28T18:03:54.952Z,101525.66
2023-01-28T18:06:22.292Z,101514.75
2023-01-28T18:08:49.347Z,101512.22
2023-01-28T18:11:19.574Z,101515.41
2023-01-28T18:13:47.188Z,101507.72
2023-01-28T18:16:18.056Z,101511.44
2023-01-28T18:18:47.279Z,101518.19
2023-01-28T18:21:51.259Z,101524.94
2023-01-28T18:24:19.852Z,101539.38
2023-01-28T18:26:46.871Z,101541.56
2023-01-28T18:29:16.883Z,101532.03
2023-01-28T18:31:44.207Z,101542.41
2023-01-28T18:34:11.247Z,101544.19
2023-01-28T18:36:38.141Z,101533.31
2023-01-28T18:39:05.223Z,101544.59
2023-01-28T18:41:32.143Z,101545.56
2023-01-28T18:43:59.023Z,101531.97
2023-01-28T18:46:26.105Z,101523.81
2023-01-28T18:48:53.061Z,101518.75
2023-01-28T18:51:30.161Z,101515.53
2023-01-28T18:54:03.945Z,101524.53
2023-01-28T18:56:32.093Z,101520.91
2023-01-28T18:59:04.580Z,101521.06
2023-01-28T19:01:34.343Z,101514.41
2023-01-28T19:04:02.025Z,101536.66
2023-01-28T19:06:30.794Z,101535.50
2023-01-28T19:09:01.120Z,101526.94
2023-01-28T19:11:30.190Z,101526.03
2023-01-28T19:13:57.174Z,101520.91
2023-01-28T19:16:25.362Z,101522.03
2023-01-28T19:18:58.149Z,101511.78
2023-01-28T19:21:27.119Z,101511.78
2023-01-28T19:24:09.421Z,101537.63
2023-01-28T19:26:38.013Z,101542.09
2023-01-28T19:29:09.374Z,101534.34
2023-01-28T19:31:37.545Z,101535.06
2023-01-28T19:34:06.858Z,101529.16
2023-01-28T19:36:35.176Z,101537.69
2023-01-28T19:39:06.969Z,101545.38
2023-01-28T19:41:34.877Z,101566.31
2023-01-28T19:44:02.265Z,101576.41
2023-01-28T19:46:29.341Z,101578.47
2023-01-28T19:48:56.517Z,101566.19
2023-01-28T19:51:24.389Z,101554.06
2023-01-28T19:53:53.642Z,101550.00
2023-01-28T19:56:24.674Z,101556.00
2023-01-28T19:58:54.711Z,101561.28
2023-01-28T20:01:30.259Z,101566.25
2023-01-28T20:04:00.077Z,101580.72
2023-01-28T20:06:29.368Z,101569.03
2023-01-28T20:09:14.378Z,101575.59
2023-01-28T20:11:41.348Z,101576.59
2023-01-28T20:14:08.222Z,101562.13
2023-01-28T20:16:37.576Z,101574.38
2023-01-28T20:19:07.982Z,101577.53
2023-01-28T20:21:36.240Z,101588.78
2023-01-28T20:24:04.454Z,101584.38
2023-01-28T20:26:35.232Z,101576.66
2023-01-28T20:29:11.591Z,101573.53
2023-01-28T20:31:39.804Z,101574.34
2023-01-28T20:34:07.989Z,101580.00
2023-01-28T20:36:34.983Z,101581.81
2023-01-28T20:39:02.000Z,101578.59
2023-01-28T20:41:28.936Z,101581.78
2023-01-28T20:43:56.541Z,101571.75
2023-01-28T20:46:28.014Z,101560.44
2023-01-28T20:48:57.458Z,101550.22
2023-01-28T20:51:27.902Z,101556.91
2023-01-28T20:53:55.576Z,101557.78
2023-01-28T20:56:25.516Z,101563.91
2023-01-28T20:58:59.377Z,101569.13
2023-01-28T21:01:30.596Z,101575.19
2023-01-28T21:03:57.611Z,101580.06
2023-01-28T21:06:25.512Z,101581.09
2023-01-28T21:08:53.176Z,101586.34
2023-01-28T21:11:22.418Z,101594.03
2023-01-28T21:13:49.541Z,101596.50
2023-01-28T21:16:17.615Z,101603.31
2023-01-28T21:18:44.843Z,101611.66
2023-01-28T21:21:25.765Z,101597.78
2023-01-28T21:23:57.921Z,101594.53
2023-01-28T21:26:25.287Z,101598.91
2023-01-28T21:28:52.463Z,101597.41
2023-01-28T21:31:23.063Z,101594.03
2023-01-28T21:33:55.577Z,101604.38
2023-01-28T21:36:24.085Z,101599.34
2023-01-28T21:38:58.853Z,101602.53
2023-01-28T21:41:26.772Z,101594.28
2023-01-28T21:43:55.303Z,101600.13
2023-01-28T21:46:30.683Z,101609.59
2023-01-28T21:49:03.491Z,101600.78
2023-01-28T21:51:36.130Z,101599.50
2023-01-28T21:54:09.565Z,101606.81
2023-01-28T21:56:36.508Z,101614.50
2023-01-28T21:59:22.290Z,101619.91
2023-01-28T22:01:49.638Z,101623.47
2023-01-28T22:04:16.721Z,101609.88
2023-01-28T22:06:45.106Z,101607.63
2023-01-28T22:09:13.590Z,101605.88
2023-01-28T22:11:42.316Z,101610.09
2023-01-28T22:14:10.306Z,101595.00
2023-01-28T22:16:37.400Z,101594.84
2023-01-28T22:19:05.231Z,101605.06
2023-01-28T22:21:32.463Z,101602.91
2023-01-28T22:23:59.500Z,101593.97
2023-01-28T22:26:26.568Z,101580.50
2023-01-28T22:28:53.551Z,101576.03
2023-01-28T22:31:20.579Z,101573.47
2023-01-28T22:33:47.546Z,101561.19
2023-01-28T22:36:16.260Z,101566.81
2023-01-28T22:38:45.020Z,101564.97
2023-01-28T22:41:23.198Z,101571.97
2023-01-28T22:43:52.508Z,101574.25
2023-01-28T22:46:21.830Z,101570.19
2023-01-28T22:48:49.575Z,101578.59
2023-01-28T22:51:42.628Z,101579.84
2023-01-28T22:54:11.920Z,101587.59
2023-01-28T22:56:40.206Z,101564.66
2023-01-28T22:59:07.174Z,101569.94
2023-01-28T23:01:39.080Z,101568.84
2023-01-28T23:04:05.957Z,101574.22
2023-01-28T23:06:33.728Z,101568.69
2023-01-28T23:09:00.679Z,101574.84
2023-01-28T23:11:28.322Z,101572.75
2023-01-28T23:14:20.952Z,101576.88
2023-01-28T23:17:07.510Z,101577.97
2023-01-28T23:19:53.798Z,101581.91
2023-01-28T23:22:47.227Z,101580.75
2023-01-28T23:25:14.864Z,101568.84
2023-01-28T23:27:42.636Z,101565.97
2023-01-28T23:30:11.833Z,101574.03
2023-01-28T23:32:48.689Z,101577.72
2023-01-28T23:35:17.220Z,101569.09
2023-01-28T23:37:44.375Z,101578.22
2023-01-28T23:40:12.670Z,101589.72
2023-01-28T23:42:39.649Z,101595.09
2023-01-28T23:45:07.672Z,101597.00
2023-01-28T23:47:34.542Z,101588.00
2023-01-28T23:50:01.944Z,101581.53
2023-01-28T23:52:29.048Z,101579.38
2023-01-28T23:54:56.210Z,101577.41
2023-01-28T23:57:23.190Z,101567.09
2023-01-28T23:59:51.444Z,101561.16
